Time;durP1;ratioP1;P1;durP2;ratioP2;P2;SDS_P1;SDS_P2;PMS_P1;PMS_P2;Temp;Humidity;BMP_temperature;BMP_pressure;BME280_temperature;BME280_humidity;BME280_pressure;Samples;Min_cycle;Max_cycle;Signal;HPM_P1;HPM_P2
2023/04/01 00:00:18;;;;;;;;;;;;;;;7.62;97.24;95611.97;5076862;28;19923;-71
2023/04/01 00:02:43;;;;;;;;;;;;;;;7.65;97.46;95613.16;5080971;28;19955;-72
2023/04/01 00:05:10;;;;;;;;;;;;;;;7.59;99.64;95620.88;5075803;28;19920;-70
2023/04/01 00:07:36;;;;;;;;;;;;;;;7.55;100.00;95622.78;5082030;28;20301;-71
2023/04/01 00:10:01;;;;;;;;;;;;;;;7.53;100.00;95619.66;5080484;28;19920;-70
2023/04/01 00:12:28;;;;;;;;;;;;;;;7.34;100.00;95620.59;5078339;28;19989;-72
2023/04/01 00:14:53;;;;;;;;;;;;;;;7.40;100.00;95618.31;5081009;28;19964;-72
2023/04/01 00:17:18;;;;;;;;;;;;;;;7.32;100.00;95622.91;5077153;28;19920;-70
2023/04/01 00:19:43;;;;;;;;;;;;;;;7.28;100.00;95608.47;5067740;28;19922;-71
2023/04/01 00:22:11;;;;;;;;;;;;;;;7.36;100.00;95609.34;5067704;28;19977;-71
2023/04/01 00:24:37;;;;;;;;;;;;;;;7.33;100.00;95610.88;5089436;28;19972;-70
2023/04/01 00:27:02;;;;;;;;;;;;;;;7.29;100.00;95612.75;5087251;28;19920;-71
2023/04/01 00:29:29;;;;;;;;;;;;;;;7.34;100.00;95615.16;5085249;28;20280;-71
2023/04/01 00:31:55;;;;;;;;;;;;;;;7.27;100.00;95626.78;5087556;28;19959;-72
2023/04/01 00:34:20;;;;;;;;;;;;;;;7.24;100.00;95627.50;5083628;28;19916;-71
2023/04/01 00:36:46;;;;;;;;;;;;;;;7.23;100.00;95627.88;5087479;28;19924;-70
2023/04/01 00:39:11;;;;;;;;;;;;;;;7.12;100.00;95622.28;5084031;28;19916;-70
2023/04/01 00:41:37;;;;;;;;;;;;;;;7.04;100.00;95635.03;5088998;28;20308;-72
2023/04/01 00:44:14;;;;;;;;;;;;;;;7.00;100.00;95636.13;5086335;28;20027;-71
2023/04/01 00:46:40;;;;;;;;;;;;;;;6.96;100.00;95629.88;5086607;28;19970;-72
2023/04/01 00:49:05;;;;;;;;;;;;;;;6.86;100.00;95639.44;5083403;28;19959;-71
2023/04/01 00:51:31;;;;;;;;;;;;;;;6.78;100.00;95638.56;5088300;28;19958;-72
2023/04/01 00:53:57;;;;;;;;;;;;;;;6.75;100.00;95638.53;5088095;28;19923;-72
2023/04/01 00:56:27;;;;;;;;;;;;;;;6.61;100.00;95652.69;5081838;28;20365;-70
2023/04/01 00:59:04;;;;;;;;;;;;;;;6.52;100.00;95650.25;5088025;28;19969;-72
2023/04/01 01:01:30;;;;;;;;;;;;;;;6.43;100.00;95653.22;5087460;28;19920;-72
2023/04/01 01:03:55;;;;;;;;;;;;;;;6.40;100.00;95651.22;5088164;28;19982;-72
2023/04/01 01:06:24;;;;;;;;;;;;;;;6.30;100.00;95654.56;5082481;28;19920;-72
2023/04/01 01:08:57;;;;;;;;;;;;;;;6.29;100.00;95650.28;5087842;28;19924;-72
2023/04/01 01:11:30;;;;;;;;;;;;;;;6.21;100.00;95651.31;5083147;28;20415;-71
2023/04/01 01:14:02;;;;;;;;;;;;;;;6.14;100.00;95641.13;5088916;28;20073;-70
2023/04/01 01:16:35;;;;;;;;;;;;;;;6.09;100.00;95633.28;5085292;28;19973;-71
2023/04/01 01:19:11;;;;;;;;;;;;;;;6.02;100.00;95635.88;5088477;28;19916;-71
2023/04/01 01:21:43;;;;;;;;;;;;;;;6.00;100.00;95640.88;5087752;28;19916;-71
2023/04/01 01:24:13;;;;;;;;;;;;;;;5.94;100.00;95643.88;5064098;28;19923;-72
2023/04/01 01:26:49;;;;;;;;;;;;;;;5.89;100.00;95637.94;5087557;28;19968;-71
2023/04/01 01:29:20;;;;;;;;;;;;;;;5.89;100.00;95622.44;5083830;28;19935;-71
2023/04/01 01:31:51;;;;;;;;;;;;;;;5.85;100.00;95618.88;5088563;28;19920;-71
2023/04/01 01:34:22;;;;;;;;;;;;;;;5.94;100.00;95621.31;5079702;28;19923;-72
2023/04/01 01:36:54;;;;;;;;;;;;;;;5.81;100.00;95617.22;5083922;28;19927;-71
2023/04/01 01:39:20;;;;;;;;;;;;;;;5.75;100.00;95619.47;5079303;28;19916;-73
2023/04/01 01:41:49;;;;;;;;;;;;;;;5.78;100.00;95609.78;5084850;28;19924;-71
2023/04/01 01:44:15;;;;;;;;;;;;;;;5.88;100.00;95603.75;5079504;28;20273;-72
2023/04/01 01:46:42;;;;;;;;;;;;;;;6.01;100.00;95613.31;5081385;28;20329;-71
2023/04/01 01:49:09;;;;;;;;;;;;;;;5.95;100.00;95603.88;5079695;28;20468;-71
2023/04/01 01:51:34;;;;;;;;;;;;;;;5.94;100.00;95600.38;5084554;28;19922;-71
2023/04/01 01:54:00;;;;;;;;;;;;;;;6.06;100.00;95596.69;5084911;28;20361;-71
2023/04/01 01:56:27;;;;;;;;;;;;;;;6.00;100.00;95600.13;5077927;28;19928;-71
2023/04/01 01:58:55;;;;;;;;;;;;;;;6.00;100.00;95598.16;5084464;28;19924;-71
2023/04/01 02:01:24;;;;;;;;;;;;;;;5.85;100.00;95593.59;5079499;28;19916;-71
2023/04/01 02:03:50;;;;;;;;;;;;;;;5.84;100.00;95590.13;5067571;28;20362;-71
2023/04/01 02:06:17;;;;;;;;;;;;;;;5.97;100.00;95598.13;5087301;28;19923;-71
2023/04/01 02:08:45;;;;;;;;;;;;;;;5.93;100.00;95589.88;5088262;28;19920;-71
2023/04/01 02:11:12;;;;;;;;;;;;;;;5.91;100.00;95598.38;5084918;28;19925;-71
2023/04/01 02:13:42;;;;;;;;;;;;;;;5.86;100.00;95593.25;5088543;28;19931;-70
2023/04/01 02:16:34;;;;;;;;;;;;;;;5.93;100.00;95590.66;5081551;28;20262;-72
2023/04/01 02:19:01;;;;;;;;;;;;;;;6.00;100.00;95591.97;5044702;28;19916;-72
2023/04/01 02:21:30;;;;;;;;;;;;;;;6.07;100.00;95595.56;5061428;28;20242;-72
2023/04/01 02:23:56;;;;;;;;;;;;;;;6.06;100.00;95595.94;5082840;28;19920;-73
2023/04/01 02:26:23;;;;;;;;;;;;;;;6.22;100.00;95591.13;5077302;28;20478;-72
2023/04/01 02:28:49;;;;;;;;;;;;;;;6.18;100.00;95601.19;5082026;28;19924;-72
2023/04/01 02:31:15;;;;;;;;;;;;;;;6.23;100.00;95584.56;5077250;28;19916;-71
2023/04/01 02:33:41;;;;;;;;;;;;;;;6.32;100.00;95603.34;5082698;28;19961;-71
2023/04/01 02:36:10;;;;;;;;;;;;;;;6.34;100.00;95598.31;5076559;28;20010;-71
2023/04/01 02:38:35;;;;;;;;;;;;;;;6.32;100.00;95593.25;5089069;28;19916;-72
2023/04/01 02:41:02;;;;;;;;;;;;;;;6.35;100.00;95599.88;5090705;28;19916;-71
2023/04/01 02:43:28;;;;;;;;;;;;;;;6.37;100.00;95596.78;5086924;28;19923;-72
2023/04/01 02:45:53;;;;;;;;;;;;;;;6.38;100.00;95592.94;5084074;28;20022;-70
2023/04/01 02:48:19;;;;;;;;;;;;;;;6.41;100.00;95597.63;5079647;28;19920;-71
2023/04/01 02:50:44;;;;;;;;;;;;;;;6.44;100.00;95594.16;5083352;28;19920;-72
2023/04/01 02:53:10;;;;;;;;;;;;;;;6.45;100.00;95598.47;5060244;28;19942;-72
2023/04/01 02:55:35;;;;;;;;;;;;;;;6.50;100.00;95595.44;5082509;28;19926;-72
2023/04/01 02:58:01;;;;;;;;;;;;;;;6.54;100.00;95592.78;5064059;28;19916;-72
2023/04/01 03:00:26;;;;;;;;;;;;;;;6.47;100.00;95593.44;5078293;28;19947;-72
2023/04/01 03:02:52;;;;;;;;;;;;;;;6.48;100.00;95589.56;5083915;28;20356;-71
2023/04/01 03:05:17;;;;;;;;;;;;;;;6.55;100.00;95595.09;5077454;28;19927;-71
2023/04/01 03:07:42;;;;;;;;;;;;;;;6.55;100.00;95605.19;5082708;28;19955;-71
2023/04/01 03:10:08;;;;;;;;;;;;;;;6.51;100.00;95588.84;5077673;28;20299;-72
2023/04/01 03:12:33;;;;;;;;;;;;;;;6.54;100.00;95601.72;5081498;28;20395;-72
2023/04/01 03:14:59;;;;;;;;;;;;;;;6.47;100.00;95596.16;5082876;28;19952;-72
2023/04/01 03:17:24;;;;;;;;;;;;;;;6.50;100.00;95596.22;5075968;28;19920;-71
2023/04/01 03:19:49;;;;;;;;;;;;;;;6.54;100.00;95596.25;5081500;28;19917;-72
2023/04/01 03:22:15;;;;;;;;;;;;;;;6.58;100.00;95604.47;5077210;28;19920;-71
2023/04/01 03:24:40;;;;;;;;;;;;;;;6.59;100.00;95600.59;5080840;28;20293;-70
2023/04/01 03:27:05;;;;;;;;;;;;;;;6.53;100.00;95608.28;5077118;28;19924;-71
2023/04/01 03:29:31;;;;;;;;;;;;;;;6.46;100.00;95610.91;5082486;28;19920;-72
2023/04/01 03:31:57;;;;;;;;;;;;;;;6.53;100.00;95594.69;5081865;28;19920;-71
2023/04/01 03:34:23;;;;;;;;;;;;;;;6.55;100.00;95605.19;5077775;28;19924;-72
2023/04/01 03:36:49;;;;;;;;;;;;;;;6.60;100.00;95613.06;5080965;28;19920;-72
2023/04/01 03:39:14;;;;;;;;;;;;;;;6.61;100.00;95603.72;5077412;28;19920;-71
2023/04/01 03:41:39;;;;;;;;;;;;;;;6.57;100.00;95606.44;5082515;28;19916;-71
2023/04/01 03:44:04;;;;;;;;;;;;;;;6.56;100.00;95606.78;5077485;28;20404;-72
2023/04/01 03:46:30;;;;;;;;;;;;;;;6.62;100.00;95599.88;5080901;28;20007;-71
2023/04/01 03:48:55;;;;;;;;;;;;;;;6.58;100.00;95607.97;5082238;28;20377;-71
2023/04/01 03:51:20;;;;;;;;;;;;;;;6.55;100.00;95605.97;5077838;28;19916;-71
2023/04/01 03:53:46;;;;;;;;;;;;;;;6.60;100.00;95611.09;5081447;28;19920;-71
2023/04/01 03:56:11;;;;;;;;;;;;;;;6.60;100.00;95602.94;5076039;28;19926;-72
2023/04/01 03:58:36;;;;;;;;;;;;;;;6.58;100.00;95610.69;5081580;28;20662;-71
2023/04/01 04:01:02;;;;;;;;;;;;;;;6.60;100.00;95602.94;5079472;28;19931;-73
2023/04/01 04:03:27;;;;;;;;;;;;;;;6.56;100.00;95604.06;5078428;28;19928;-72
2023/04/01 04:05:53;;;;;;;;;;;;;;;6.66;100.00;95608.84;5079807;28;19959;-71
2023/04/01 04:08:21;;;;;;;;;;;;;;;6.66;100.00;95598.78;5076606;28;19916;-73
2023/04/01 04:10:46;;;;;;;;;;;;;;;6.69;100.00;95599.97;5082196;28;19920;-71
2023/04/01 04:13:11;;;;;;;;;;;;;;;6.59;100.00;95604.13;5077452;28;19939;-72
2023/04/01 04:15:38;;;;;;;;;;;;;;;6.60;100.00;95594.00;5081533;28;20004;-71
2023/04/01 04:18:04;;;;;;;;;;;;;;;6.66;100.00;95598.78;5078600;28;19920;-73
2023/04/01 04:20:29;;;;;;;;;;;;;;;6.72;100.00;95603.88;5081096;28;19923;-72
2023/04/01 04:22:55;;;;;;;;;;;;;;;6.72;100.00;95599.22;5063582;28;19972;-71
2023/04/01 04:25:21;;;;;;;;;;;;;;;6.72;100.00;95599.22;5076205;28;19920;-72
2023/04/01 04:27:47;;;;;;;;;;;;;;;6.84;100.00;95603.66;5081557;28;19916;-72
2023/04/01 04:30:13;;;;;;;;;;;;;;;6.70;100.00;95606.97;5076787;28;19917;-72
2023/04/01 04:32:38;;;;;;;;;;;;;;;6.70;100.00;95605.03;5081128;28;20059;-73
2023/04/01 04:35:06;;;;;;;;;;;;;;;6.72;100.00;95606.59;5058548;28;20401;-72
2023/04/01 04:37:32;;;;;;;;;;;;;;;6.74;100.00;95607.03;5083584;28;19922;-71
2023/04/01 04:39:57;;;;;;;;;;;;;;;6.77;100.00;95611.72;5087585;28;19916;-72
2023/04/01 04:42:23;;;;;;;;;;;;;;;6.77;100.00;95612.53;5076313;28;20619;-72
2023/04/01 04:44:48;;;;;;;;;;;;;;;6.72;100.00;95618.28;5080775;28;19970;-72
2023/04/01 04:47:13;;;;;;;;;;;;;;;6.65;100.00;95610.03;5076434;28;19920;-72
2023/04/01 04:49:39;;;;;;;;;;;;;;;6.71;100.00;95616.69;5081581;28;19977;-72
2023/04/01 04:52:04;;;;;;;;;;;;;;;6.74;100.00;95631.53;5077576;28;19956;-73
2023/04/01 04:54:29;;;;;;;;;;;;;;;6.70;100.00;95626.81;5081992;28;19952;-71
2023/04/01 04:56:55;;;;;;;;;;;;;;;6.78;100.00;95629.63;5081855;28;20393;-72
2023/04/01 04:59:20;;;;;;;;;;;;;;;6.74;100.00;95626.09;5058575;28;20018;-71
2023/04/01 05:01:46;;;;;;;;;;;;;;;6.71;100.00;95633.03;5081117;28;20028;-73
2023/04/01 05:04:11;;;;;;;;;;;;;;;6.66;100.00;95622.47;5075634;28;19920;-72
2023/04/01 05:06:36;;;;;;;;;;;;;;;6.58;100.00;95635.19;5064101;28;19916;-70
2023/04/01 05:09:01;;;;;;;;;;;;;;;6.48;100.00;95627.63;5085773;28;19974;-71
2023/04/01 05:11:27;;;;;;;;;;;;;;;6.46;100.00;95630.75;5081974;28;19916;-71
2023/04/01 05:13:54;;;;;;;;;;;;;;;6.47;100.00;95623.38;5087936;28;20409;-71
2023/04/01 05:16:20;;;;;;;;;;;;;;;6.39;100.00;95622.47;5081696;28;19949;-71
2023/04/01 05:18:46;;;;;;;;;;;;;;;6.32;100.00;95622.38;5086962;28;19916;-71
2023/04/01 05:21:12;;;;;;;;;;;;;;;6.35;100.00;95616.19;5080435;28;19967;-72
2023/04/01 05:23:38;;;;;;;;;;;;;;;6.30;100.00;95619.22;5085186;28;19966;-72
2023/04/01 05:26:04;;;;;;;;;;;;;;;6.36;100.00;95614.28;5080720;28;20692;-74
2023/04/01 05:28:29;;;;;;;;;;;;;;;6.32;100.00;95611.50;5083705;28;20019;-71
2023/04/01 05:30:57;;;;;;;;;;;;;;;6.27;100.00;95620.75;5084210;28;20003;-71
2023/04/01 05:33:22;;;;;;;;;;;;;;;6.35;100.00;95629.00;5078387;28;20826;-72
2023/04/01 05:35:48;;;;;;;;;;;;;;;6.38;100.00;95623.63;5083626;28;19947;-71
2023/04/01 05:38:13;;;;;;;;;;;;;;;6.32;100.00;95623.16;5080584;28;19920;-72
2023/04/01 05:40:38;;;;;;;;;;;;;;;6.57;100.00;95627.38;5094618;28;19917;-72
2023/04/01 05:43:04;;;;;;;;;;;;;;;6.67;100.00;95616.66;5083700;28;20326;-73
2023/04/01 05:45:29;;;;;;;;;;;;;;;6.63;100.00;95624.00;5088430;28;19945;-72
2023/04/01 05:47:55;;;;;;;;;;;;;;;6.72;100.00;95628.38;5090597;28;20426;-70
2023/04/01 05:50:20;;;;;;;;;;;;;;;6.70;100.00;95617.88;5083847;28;19927;-72
2023/04/01 05:52:45;;;;;;;;;;;;;;;6.56;100.00;95623.09;5084634;28;20400;-71
2023/04/01 05:55:11;;;;;;;;;;;;;;;6.60;100.00;95619.28;5077198;28;19917;-72
2023/04/01 05:57:36;;;;;;;;;;;;;;;6.65;100.00;95631.78;5084476;28;20359;-72
2023/04/01 06:00:02;;;;;;;;;;;;;;;6.64;100.00;95630.22;5084316;28;19931;-73
2023/04/01 06:02:28;;;;;;;;;;;;;;;6.74;100.00;95632.31;5082282;28;19920;-72
2023/04/01 06:05:01;;;;;;;;;;;;;;;6.79;100.00;95636.63;5085766;28;19943;-73
2023/04/01 06:07:27;;;;;;;;;;;;;;;6.84;100.00;95642.56;5083739;28;19916;-71
2023/04/01 06:09:54;;;;;;;;;;;;;;;6.83;100.00;95634.75;5084551;28;19916;-71
2023/04/01 06:12:28;;;;;;;;;;;;;;;6.83;100.00;95638.25;5079022;28;20014;-71
2023/04/01 06:15:04;;;;;;;;;;;;;;;6.84;100.00;95637.13;5084217;28;20367;-71
2023/04/01 06:17:44;;;;;;;;;;;;;;;6.80;100.00;95628.09;5063108;28;19977;-71
2023/04/01 06:20:24;;;;;;;;;;;;;;;6.91;100.00;95632.91;5060235;28;20011;-71
2023/04/01 06:23:09;;;;;;;;;;;;;;;6.93;100.00;95639.53;5082450;28;19923;-72
2023/04/01 06:25:42;;;;;;;;;;;;;;;6.99;100.00;95648.97;5081469;28;20023;-70
2023/04/01 06:28:26;;;;;;;;;;;;;;;7.01;100.00;95643.94;5079020;28;20347;-71
2023/04/01 06:31:10;;;;;;;;;;;;;;;7.10;100.00;95634.72;5083659;28;19931;-70
2023/04/01 06:33:43;;;;;;;;;;;;;;;7.24;100.00;95632.94;5083398;28;19920;-69
2023/04/01 06:36:09;;;;;;;;;;;;;;;7.36;100.00;95639.31;5088864;28;19916;-68
2023/04/01 06:38:46;;;;;;;;;;;;;;;7.36;99.37;95639.31;5099631;28;19920;-68
2023/04/01 06:41:17;;;;;;;;;;;;;;;7.51;98.74;95641.03;5079827;28;19924;-68
2023/04/01 06:43:56;;;;;;;;;;;;;;;7.66;97.32;95633.81;5083407;28;19923;-68
2023/04/01 06:46:40;;;;;;;;;;;;;;;7.70;95.78;95637.34;5081243;28;20211;-68
2023/04/01 06:49:17;;;;;;;;;;;;;;;7.77;95.58;95623.00;5084886;28;19920;-67
2023/04/01 06:51:42;;;;;;;;;;;;;;;7.87;95.32;95624.25;5065277;28;19916;-68
2023/04/01 06:54:15;;;;;;;;;;;;;;;8.36;94.67;95636.78;5079078;28;19916;-68
2023/04/01 06:56:42;;;;;;;;;;;;;;;8.38;92.73;95626.25;5083655;28;19935;-67
2023/04/01 06:59:19;;;;;;;;;;;;;;;8.28;92.59;95625.00;5078060;28;19923;-68
2023/04/01 07:01:53;;;;;;;;;;;;;;;8.98;89.79;95625.09;5082568;28;19916;-66
2023/04/01 07:04:33;;;;;;;;;;;;;;;9.35;85.51;95624.88;5077915;28;19920;-68
2023/04/01 07:07:01;;;;;;;;;;;;;;;9.43;84.13;95620.22;5082591;28;20041;-68
2023/04/01 07:09:53;;;;;;;;;;;;;;;9.19;85.47;95627.94;5070490;28;19927;-68
2023/04/01 07:12:22;;;;;;;;;;;;;;;9.44;83.61;95610.09;5086648;28;19917;-68
2023/04/01 07:14:49;;;;;;;;;;;;;;;9.30;86.65;95610.81;5083927;28;19923;-68
2023/04/01 07:17:17;;;;;;;;;;;;;;;10.49;79.23;95609.84;5076723;28;20065;-68
2023/04/01 07:20:06;;;;;;;;;;;;;;;10.29;78.30;95605.91;5083147;28;19920;-67
2023/04/01 07:22:44;;;;;;;;;;;;;;;11.36;71.37;95604.13;5071957;28;19922;-67
2023/04/01 07:25:20;;;;;;;;;;;;;;;10.67;75.75;95592.63;5077875;28;19923;-67
2023/04/01 07:27:46;;;;;;;;;;;;;;;10.93;74.64;95599.63;5082726;28;19924;-69
2023/04/01 07:30:18;;;;;;;;;;;;;;;11.14;72.77;95603.44;5077013;28;20586;-69
2023/04/01 07:32:47;;;;;;;;;;;;;;;11.32;71.76;95612.38;5064678;28;19959;-68
2023/04/01 07:35:22;;;;;;;;;;;;;;;10.88;74.51;95610.97;5076978;28;19958;-67
2023/04/01 07:37:57;;;;;;;;;;;;;;;10.28;75.20;95607.06;5081816;28;19920;-67
2023/04/01 07:40:43;;;;;;;;;;;;;;;10.10;76.38;95612.53;5076840;28;20730;-66
2023/04/01 07:43:11;;;;;;;;;;;;;;;9.85;77.61;95617.97;5073319;28;19916;-68
2023/04/01 07:45:59;;;;;;;;;;;;;;;9.82;77.67;95616.81;5082843;28;19916;-70
2023/04/01 07:48:29;;;;;;;;;;;;;;;9.88;79.20;95618.00;5077443;28;19920;-67
2023/04/01 07:51:12;;;;;;;;;;;;;;;9.76;78.53;95629.31;5082514;28;19955;-68
2023/04/01 07:53:42;;;;;;;;;;;;;;;9.54;81.13;95632.00;5081349;28;20558;-68
2023/04/01 07:56:11;;;;;;;;;;;;;;;9.65;80.21;95626.56;5077692;28;19920;-68
2023/04/01 07:58:42;;;;;;;;;;;;;;;9.47;82.05;95618.31;5082913;28;19942;-68
2023/04/01 08:01:07;;;;;;;;;;;;;;;9.34;82.61;95611.59;5075966;28;19969;-68
2023/04/01 08:03:32;;;;;;;;;;;;;;;9.41;83.10;95617.09;5082326;28;19920;-68
2023/04/01 08:06:14;;;;;;;;;;;;;;;9.53;83.06;95624.94;5081561;28;19916;-68
2023/04/01 08:08:42;;;;;;;;;;;;;;;9.50;82.04;95612.03;5081657;28;20300;-68
2023/04/01 08:11:07;;;;;;;;;;;;;;;9.54;81.81;95615.59;5076286;28;19938;-68
2023/04/01 08:13:39;;;;;;;;;;;;;;;9.69;80.63;95602.72;5084265;28;19919;-68
2023/04/01 08:16:24;;;;;;;;;;;;;;;9.90;79.46;95615.69;5078218;28;20055;-67
2023/04/01 08:19:13;;;;;;;;;;;;;;;10.28;78.10;95610.63;5083831;28;19916;-69
2023/04/01 08:21:40;;;;;;;;;;;;;;;10.89;75.28;95616.06;5091410;28;19917;-67
2023/04/01 08:24:11;;;;;;;;;;;;;;;10.58;74.14;95611.41;5059507;28;20037;-68
2023/04/01 08:26:44;;;;;;;;;;;;;;;10.28;76.13;95624.31;5081825;28;20000;-68
2023/04/01 08:29:13;;;;;;;;;;;;;;;10.18;78.21;95622.34;5078131;28;19970;-68
2023/04/01 08:31:43;;;;;;;;;;;;;;;9.95;79.19;95618.00;5082944;28;20019;-68
2023/04/01 08:34:14;;;;;;;;;;;;;;;9.60;80.98;95626.94;5076160;28;19920;-69
2023/04/01 08:36:43;;;;;;;;;;;;;;;9.37;81.31;95625.28;5080906;28;19928;-69
2023/04/01 08:39:35;;;;;;;;;;;;;;;9.34;82.77;95628.78;5076453;28;20007;-70
2023/04/01 08:42:15;;;;;;;;;;;;;;;9.37;82.70;95619.81;5081841;28;19916;-69
2023/04/01 08:44:43;;;;;;;;;;;;;;;9.34;82.18;95626.03;5084992;28;19924;-68
2023/04/01 08:47:27;;;;;;;;;;;;;;;9.27;82.67;95639.69;5077799;28;20263;-70
2023/04/01 08:50:15;;;;;;;;;;;;;;;9.28;83.47;95638.53;5085981;28;19935;-68
2023/04/01 08:52:52;;;;;;;;;;;;;;;9.42;82.46;95635.06;5084643;28;19916;-69
2023/04/01 08:55:37;;;;;;;;;;;;;;;9.46;83.05;95633.13;5077374;28;20026;-69
2023/04/01 08:58:20;;;;;;;;;;;;;;;9.42;83.41;95637.81;5084348;28;19931;-69
2023/04/01 09:00:47;;;;;;;;;;;;;;;9.29;83.55;95640.09;5085275;28;19959;-68
2023/04/01 09:03:19;;;;;;;;;;;;;;;9.12;84.51;95625.19;5061891;28;20478;-69
2023/04/01 09:05:59;;;;;;;;;;;;;;;9.04;86.05;95634.53;5084574;28;19945;-70
2023/04/01 09:08:31;;;;;;;;;;;;;;;9.02;85.63;95650.50;5081602;28;19920;-68
2023/04/01 09:11:07;;;;;;;;;;;;;;;9.05;86.36;95638.81;5097543;28;19924;-68
2023/04/01 09:13:44;;;;;;;;;;;;;;;8.95;86.74;95653.97;5072680;28;19923;-69
2023/04/01 09:16:15;;;;;;;;;;;;;;;8.90;88.48;95650.81;5077758;28;19921;-70
2023/04/01 09:18:58;;;;;;;;;;;;;;;8.83;88.57;95635.19;5085061;28;19916;-69
2023/04/01 09:21:24;;;;;;;;;;;;;;;8.78;87.52;95647.22;5079596;28;19995;-69
2023/04/01 09:24:10;;;;;;;;;;;;;;;8.64;88.70;95649.84;5084294;28;20069;-70
2023/04/01 09:26:42;;;;;;;;;;;;;;;8.59;89.07;95658.44;5083651;28;20007;-70
2023/04/01 09:29:22;;;;;;;;;;;;;;;8.60;90.55;95659.97;5060795;28;20388;-71
2023/04/01 09:31:47;;;;;;;;;;;;;;;8.60;91.38;95627.22;5085150;28;19916;-70
2023/04/01 09:34:23;;;;;;;;;;;;;;;8.42;91.59;95657.88;5081157;28;19947;-71
2023/04/01 09:37:04;;;;;;;;;;;;;;;8.33;93.87;95671.03;5089319;28;20284;-71
2023/04/01 09:39:37;;;;;;;;;;;;;;;8.33;91.93;95648.44;5087972;28;19920;-70
2023/04/01 09:42:20;;;;;;;;;;;;;;;8.41;92.94;95658.25;5086326;28;20396;-67
2023/04/01 09:44:59;;;;;;;;;;;;;;;8.36;92.93;95655.88;5066127;28;19947;-69
2023/04/01 09:47:42;;;;;;;;;;;;;;;8.20;92.19;95650.66;5073192;28;19923;-70
2023/04/01 09:50:24;;;;;;;;;;;;;;;8.31;93.27;95658.94;5079522;28;20327;-68
2023/04/01 09:53:07;;;;;;;;;;;;;;;8.41;92.05;95658.25;5083446;28;19920;-68
2023/04/01 09:55:51;;;;;;;;;;;;;;;8.41;92.26;95661.00;5083459;28;19946;-70
2023/04/01 09:58:31;;;;;;;;;;;;;;;8.50;92.42;95671.59;5080323;28;19920;-71
2023/04/01 10:01:10;;;;;;;;;;;;;;;8.54;91.56;95661.50;5091994;28;19928;-70
2023/04/01 10:03:49;;;;;;;;;;;;;;;8.53;91.61;95654.47;5071231;28;19973;-70
2023/04/01 10:06:33;;;;;;;;;;;;;;;8.42;91.22;95649.69;5081507;28;20332;-70
2023/04/01 10:09:15;;;;;;;;;;;;;;;8.64;91.25;95657.28;5083800;28;20345;-70
2023/04/01 10:11:43;;;;;;;;;;;;;;;8.72;90.13;95656.16;5081817;28;19974;-69
2023/04/01 10:14:14;;;;;;;;;;;;;;;8.84;90.31;95658.59;5077472;28;19916;-70
2023/04/01 10:16:42;;;;;;;;;;;;;;;8.72;89.19;95656.94;5081469;28;20014;-67
2023/04/01 10:19:40;;;;;;;;;;;;;;;8.73;90.17;95646.81;5076492;28;19916;-70
2023/04/01 10:22:18;;;;;;;;;;;;;;;8.68;90.72;95652.63;5044625;28;19920;-69
2023/04/01 10:24:55;;;;;;;;;;;;;;;8.78;90.94;95649.19;5084103;28;19974;-69
2023/04/01 10:27:20;;;;;;;;;;;;;;;8.93;90.07;95652.78;5079140;28;19923;-70
2023/04/01 10:30:02;;;;;;;;;;;;;;;9.16;89.35;95650.59;5082946;28;19924;-70
2023/04/01 10:32:27;;;;;;;;;;;;;;;9.05;89.55;95649.72;5079907;28;19916;-70
2023/04/01 10:35:14;;;;;;;;;;;;;;;8.99;88.53;95652.03;5082074;28;19916;-69
2023/04/01 10:37:58;;;;;;;;;;;;;;;9.02;88.41;95653.25;5082763;28;19985;-68
2023/04/01 10:40:42;;;;;;;;;;;;;;;9.16;87.71;95653.31;5078083;28;20007;-68
2023/04/01 10:43:07;;;;;;;;;;;;;;;9.09;87.58;95653.28;5078796;28;19920;-70
2023/04/01 10:45:48;;;;;;;;;;;;;;;9.19;86.88;95655.25;5080362;28;19927;-68
2023/04/01 10:48:22;;;;;;;;;;;;;;;9.16;86.79;95655.25;5055025;28;19969;-71
2023/04/01 10:50:59;;;;;;;;;;;;;;;9.10;86.16;95643.91;5080538;28;19925;-71
2023/04/01 10:53:38;;;;;;;;;;;;;;;9.07;86.55;95641.94;5057555;28;19924;-70
2023/04/01 10:56:22;;;;;;;;;;;;;;;9.11;86.25;95650.94;5057841;28;20024;-68
2023/04/01 10:59:01;;;;;;;;;;;;;;;9.24;86.04;95656.84;5044938;28;19982;-70
2023/04/01 11:01:29;;;;;;;;;;;;;;;9.24;86.85;95662.31;5056979;28;19920;-69
2023/04/01 11:04:03;;;;;;;;;;;;;;;9.17;86.23;95654.88;5063145;28;19927;-70
2023/04/01 11:06:31;;;;;;;;;;;;;;;8.94;87.72;95638.75;5061452;28;19927;-70
2023/04/01 11:09:26;;;;;;;;;;;;;;;9.12;88.61;95649.75;5064995;28;19924;-72
2023/04/01 11:12:08;;;;;;;;;;;;;;;9.09;88.64;95645.09;5008851;28;19956;-70
2023/04/01 11:14:34;;;;;;;;;;;;;;;9.14;89.17;95652.88;5075202;28;19924;-69
2023/04/01 11:17:19;;;;;;;;;;;;;;;9.12;88.69;95657.19;5070273;28;19927;-69
2023/04/01 11:19:48;;;;;;;;;;;;;;;9.08;89.71;95651.69;5064834;28;19917;-68
2023/04/01 11:22:19;;;;;;;;;;;;;;;9.10;88.94;95643.13;5058795;28;19923;-69
2023/04/01 11:25:04;;;;;;;;;;;;;;;9.29;87.68;95655.69;5060729;28;19921;-69
2023/04/01 11:27:42;;;;;;;;;;;;;;;9.33;86.94;95643.63;5060963;28;19923;-68
2023/04/01 11:30:07;;;;;;;;;;;;;;;9.38;85.91;95648.72;5066308;28;19985;-69
2023/04/01 11:32:42;;;;;;;;;;;;;;;9.56;85.04;95645.25;5082771;28;20669;-69
2023/04/01 11:35:26;;;;;;;;;;;;;;;9.76;84.33;95649.25;5058483;28;19939;-69
2023/04/01 11:37:59;;;;;;;;;;;;;;;9.85;83.10;95648.06;5064348;28;19920;-69
2023/04/01 11:40:47;;;;;;;;;;;;;;;9.63;83.96;95639.81;5079067;28;19923;-69
2023/04/01 11:43:13;;;;;;;;;;;;;;;9.77;83.55;95633.59;5071623;28;20519;-70
2023/04/01 11:45:49;;;;;;;;;;;;;;;10.02;83.62;95647.31;5086787;28;19920;-69
2023/04/01 11:48:15;;;;;;;;;;;;;;;10.21;81.58;95632.50;5079227;28;20031;-70
2023/04/01 11:50:46;;;;;;;;;;;;;;;10.13;80.34;95630.94;5081181;28;20027;-69
2023/04/01 11:53:17;;;;;;;;;;;;;;;10.35;79.13;95636.44;5077752;28;19935;-69
2023/04/01 11:56:01;;;;;;;;;;;;;;;10.20;77.90;95638.38;5081601;28;19926;-69
2023/04/01 11:58:47;;;;;;;;;;;;;;;10.08;78.39;95647.72;5077090;28;20019;-69
2023/04/01 12:01:24;;;;;;;;;;;;;;;10.05;78.65;95629.38;5077056;28;19972;-69
2023/04/01 12:03:52;;;;;;;;;;;;;;;10.07;78.72;95640.69;5081115;28;20057;-69
2023/04/01 12:06:33;;;;;;;;;;;;;;;10.19;77.14;95631.31;5075501;28;20516;-69
2023/04/01 12:09:12;;;;;;;;;;;;;;;10.24;77.56;95644.63;5081983;28;19927;-69
2023/04/01 12:11:41;;;;;;;;;;;;;;;10.43;75.54;95630.56;5082530;28;19920;-69
2023/04/01 12:14:22;;;;;;;;;;;;;;;10.71;74.97;95640.75;5077191;28;20445;-70
2023/04/01 12:16:51;;;;;;;;;;;;;;;10.71;75.02;95648.94;5079395;28;19979;-69
2023/04/01 12:19:16;;;;;;;;;;;;;;;10.64;75.34;95642.69;5075745;28;19967;-70
2023/04/01 12:21:47;;;;;;;;;;;;;;;10.73;75.28;95645.03;5079877;28;19947;-69
2023/04/01 12:24:31;;;;;;;;;;;;;;;10.67;75.16;95653.63;5077565;28;19935;-70
2023/04/01 12:27:06;;;;;;;;;;;;;;;10.98;75.46;95648.50;5080116;28;19924;-69
2023/04/01 12:29:45;;;;;;;;;;;;;;;10.92;76.13;95643.84;5080971;28;20518;-69
2023/04/01 12:32:19;;;;;;;;;;;;;;;10.83;74.72;95652.44;5075614;28;19970;-69
2023/04/01 12:35:04;;;;;;;;;;;;;;;10.75;75.62;95656.38;5080808;28;19921;-69
2023/04/01 12:37:30;;;;;;;;;;;;;;;10.73;77.29;95655.97;5077427;28;19924;-69
2023/04/01 12:39:55;;;;;;;;;;;;;;;10.43;77.13;95654.44;5081222;28;20335;-70
2023/04/01 12:42:40;;;;;;;;;;;;;;;10.37;76.50;95666.94;5089711;28;19916;-69
2023/04/01 12:45:18;;;;;;;;;;;;;;;10.18;76.26;95676.28;5068326;28;19920;-69
2023/04/01 12:47:44;;;;;;;;;;;;;;;9.97;77.52;95677.03;5080316;28;19920;-69
2023/04/01 12:50:23;;;;;;;;;;;;;;;10.08;77.87;95664.94;5076179;28;19920;-69
2023/04/01 12:52:51;;;;;;;;;;;;;;;10.18;78.78;95679.78;5080497;28;19977;-70
2023/04/01 12:55:36;;;;;;;;;;;;;;;9.94;80.16;95681.31;5075548;28;19924;-69
2023/04/01 12:58:17;;;;;;;;;;;;;;;9.80;81.47;95687.53;5072353;28;19928;-70
2023/04/01 13:00:45;;;;;;;;;;;;;;;9.85;83.35;95684.44;5080211;28;20392;-71
2023/04/01 13:03:29;;;;;;;;;;;;;;;9.77;84.84;95700.00;5076133;28;19921;-71
2023/04/01 13:06:14;;;;;;;;;;;;;;;9.77;84.98;95693.75;5084276;28;19920;-71
2023/04/01 13:08:52;;;;;;;;;;;;;;;9.61;83.54;95676.91;5087595;28;19951;-71
2023/04/01 13:11:20;;;;;;;;;;;;;;;9.67;83.93;95672.63;5082198;28;19927;-70